sensor_id;sensor_type;location;lat;lon;timestamp;pressure;altitude;pressure_sealevel;temperature;humidity
57374;BME280;43964;53.890;25.340;2023-05-23T00:01:58;1024.6;;;16.7;47.8
57374;BME280;43964;53.890;25.340;2023-05-23T00:06:30;1024.6;;;16.7;47.9
57374;BME280;43964;53.890;25.340;2023-05-23T00:11:48;1024.6;;;16.7;48.5
57374;BME280;43964;53.890;25.340;2023-05-23T00:16:52;1024.5;;;16.7;48.9
57374;BME280;43964;53.890;25.340;2023-05-23T00:22:04;1024.5;;;16.7;49.1
57374;BME280;43964;53.890;25.340;2023-05-23T00:27:00;1024.5;;;16.6;49
57374;BME280;43964;53.890;25.340;2023-05-23T00:32:08;1024.5;;;16.6;49
57374;BME280;43964;53.890;25.340;2023-05-23T00:37:16;1024.4;;;16.5;48.9
57374;BME280;43964;53.890;25.340;2023-05-23T00:41:42;1024.4;;;16.4;48.9
57374;BME280;43964;53.890;25.340;2023-05-23T00:47:04;1024.4;;;16.4;48.8
57374;BME280;43964;53.890;25.340;2023-05-23T00:52:04;1024.4;;;16.4;48.7
57374;BME280;43964;53.890;25.340;2023-05-23T00:56:48;1024.4;;;16.4;48.7
57374;BME280;43964;53.890;25.340;2023-05-23T01:02:16;1024.4;;;16.4;48.8
57374;BME280;43964;53.890;25.340;2023-05-23T01:07:00;1024.4;;;16.4;49.2
57374;BME280;43964;53.890;25.340;2023-05-23T01:12:18;1024.5;;;16.5;49.5
57374;BME280;43964;53.890;25.340;2023-05-23T01:17:18;1024.5;;;16.5;49.6
57374;BME280;43964;53.890;25.340;2023-05-23T01:22:10;1024.5;;;16.5;49.8
57374;BME280;43964;53.890;25.340;2023-05-23T01:27:00;1024.5;;;16.5;49.9
57374;BME280;43964;53.890;25.340;2023-05-23T01:31:30;1024.5;;;16.5;49.8
57374;BME280;43964;53.890;25.340;2023-05-23T01:36:48;1024.6;;;16.4;49.8
57374;BME280;43964;53.890;25.340;2023-05-23T01:42:16;1024.6;;;16.5;49.9
57374;BME280;43964;53.890;25.340;2023-05-23T01:46:30;1024.6;;;16.4;50
57374;BME280;43964;53.890;25.340;2023-05-23T01:52:16;1024.5;;;16.4;49.9
57374;BME280;43964;53.890;25.340;2023-05-23T01:57:08;1024.5;;;16.4;50.1
57374;BME280;43964;53.890;25.340;2023-05-23T02:02:16;1024.4;;;16.4;50.4
57374;BME280;43964;53.890;25.340;2023-05-23T02:06:46;1024.4;;;16.4;50.6
57374;BME280;43964;53.890;25.340;2023-05-23T02:12:00;1024.4;;;16.4;50.7
57374;BME280;43964;53.890;25.340;2023-05-23T02:17:04;1024.4;;;16.4;50.7
57374;BME280;43964;53.890;25.340;2023-05-23T02:21:40;1024.4;;;16.2;50.6
57374;BME280;43964;53.890;25.340;2023-05-23T02:26:30;1024.3;;;16.2;50.5
57374;BME280;43964;53.890;25.340;2023-05-23T02:31:30;1024.3;;;16.2;50.3
57374;BME280;43964;53.890;25.340;2023-05-23T02:36:30;1024.3;;;16.2;50.4
57374;BME280;43964;53.890;25.340;2023-05-23T02:41:38;1024.3;;;16.3;50.4
57374;BME280;43964;53.890;25.340;2023-05-23T02:47:18;1024.3;;;16.3;50.5
57374;BME280;43964;53.890;25.340;2023-05-23T02:51:52;1024.2;;;16.4;50.7
57374;BME280;43964;53.890;25.340;2023-05-23T02:57:18;1024.2;;;16.5;50.9
57374;BME280;43964;53.890;25.340;2023-05-23T03:02:08;1024.3;;;16.5;51
57374;BME280;43964;53.890;25.340;2023-05-23T03:06:56;1024.3;;;16.6;51.2
57374;BME280;43964;53.890;25.340;2023-05-23T03:11:42;1024.3;;;16.6;51
57374;BME280;43964;53.890;25.340;2023-05-23T03:17:18;1024.3;;;16.6;50.9
57374;BME280;43964;53.890;25.340;2023-05-23T03:22:16;1024.3;;;16.6;50.9
57374;BME280;43964;53.890;25.340;2023-05-23T03:27:08;1024.3;;;16.6;50.9
57374;BME280;43964;53.890;25.340;2023-05-23T03:32:16;1024.4;;;16.6;51
57374;BME280;43964;53.890;25.340;2023-05-23T03:37:06;1024.4;;;16.6;50.8
57374;BME280;43964;53.890;25.340;2023-05-23T03:41:56;1024.3;;;16.6;50.6
57374;BME280;43964;53.890;25.340;2023-05-23T03:46:48;1024.3;;;16.6;50.5
57374;BME280;43964;53.890;25.340;2023-05-23T03:51:50;1024.3;;;16.7;50.3
57374;BME280;43964;53.890;25.340;2023-05-23T03:57:02;1024.2;;;16.9;50.3
57374;BME280;43964;53.890;25.340;2023-05-23T04:01:30;1024.2;;;17.1;50.4
57374;BME280;43964;53.890;25.340;2023-05-23T04:07:06;1024.2;;;17.2;50.3
57374;BME280;43964;53.890;25.340;2023-05-23T04:12:14;1024.2;;;17.3;50.1
57374;BME280;43964;53.890;25.340;2023-05-23T04:16:40;1024.1;;;17.3;49.9
57374;BME280;43964;53.890;25.340;2023-05-23T04:22:02;1024;;;17.4;49.8
57374;BME280;43964;53.890;25.340;2023-05-23T04:26:50;1024;;;17.4;49.6
57374;BME280;43964;53.890;25.340;2023-05-23T04:31:30;1024.1;;;17.5;49.3
57374;BME280;43964;53.890;25.340;2023-05-23T04:37:14;1024.1;;;17.6;49.1
57374;BME280;43964;53.890;25.340;2023-05-23T04:42:00;1024;;;17.7;49
57374;BME280;43964;53.890;25.340;2023-05-23T04:47:08;1023.9;;;17.8;48.9
57374;BME280;43964;53.890;25.340;2023-05-23T04:51:42;1024;;;18;49
57374;BME280;43964;53.890;25.340;2023-05-23T04:56:52;1024;;;18.3;48.8
57374;BME280;43964;53.890;25.340;2023-05-23T05:01:56;1024;;;18.5;48.4
57374;BME280;43964;53.890;25.340;2023-05-23T05:06:32;1024;;;18.6;48.1
57374;BME280;43964;53.890;25.340;2023-05-23T05:11:50;1024;;;18.8;48
57374;BME280;43964;53.890;25.340;2023-05-23T05:17:18;1024;;;18.9;47.7
57374;BME280;43964;53.890;25.340;2023-05-23T05:21:32;1023.9;;;19;47.5
57374;BME280;43964;53.890;25.340;2023-05-23T05:27:18;1024;;;19.2;47.3
57374;BME280;43964;53.890;25.340;2023-05-23T05:32:10;1023.9;;;19.4;47
57374;BME280;43964;53.890;25.340;2023-05-23T05:36:58;1023.9;;;19.6;46.7
57374;BME280;43964;53.890;25.340;2023-05-23T05:41:32;1023.9;;;19.9;46.2
57374;BME280;43964;53.890;25.340;2023-05-23T05:47:12;1024;;;20.2;45.8
57374;BME280;43964;53.890;25.340;2023-05-23T05:52:16;1024;;;20.6;45.4
57374;BME280;43964;53.890;25.340;2023-05-23T05:57:18;1023.9;;;20.7;44.9
57374;BME280;43964;53.890;25.340;2023-05-23T06:02:18;1024;;;21;44.7
57374;BME280;43964;53.890;25.340;2023-05-23T06:06:34;1023.9;;;21.4;44.5
57374;BME280;43964;53.890;25.340;2023-05-23T06:11:32;1023.8;;;21.8;44
57374;BME280;43964;53.890;25.340;2023-05-23T06:16:32;1023.8;;;22.4;43.2
57374;BME280;43964;53.890;25.340;2023-05-23T06:21:42;1023.7;;;23;42.5
57374;BME280;43964;53.890;25.340;2023-05-23T06:27:04;1023.6;;;23.7;41.5
57374;BME280;43964;53.890;25.340;2023-05-23T06:32:02;1023.6;;;24.7;39.8
57374;BME280;43964;53.890;25.340;2023-05-23T06:37:10;1023.6;;;25.6;39
57374;BME280;43964;53.890;25.340;2023-05-23T06:42:18;1023.5;;;26.4;38.1
57374;BME280;43964;53.890;25.340;2023-05-23T06:46:58;1023.5;;;27.1;37.2
57374;BME280;43964;53.890;25.340;2023-05-23T06:52:04;1023.5;;;27.7;36.3
57374;BME280;43964;53.890;25.340;2023-05-23T06:56:58;1023.5;;;28.1;35.3
57374;BME280;43964;53.890;25.340;2023-05-23T07:01:30;1023.5;;;28.5;34.6
57374;BME280;43964;53.890;25.340;2023-05-23T07:07:18;1023.4;;;28.8;33.3
57374;BME280;43964;53.890;25.340;2023-05-23T07:12:02;1023.4;;;29.2;32.5
57374;BME280;43964;53.890;25.340;2023-05-23T07:17:18;1023.4;;;29.5;31.8
57374;BME280;43964;53.890;25.340;2023-05-23T07:22:18;1023.4;;;29.5;31.3
57374;BME280;43964;53.890;25.340;2023-05-23T07:26:54;1023.4;;;29.3;31.3
57374;BME280;43964;53.890;25.340;2023-05-23T07:31:30;1023.4;;;29;31.4
57374;BME280;43964;53.890;25.340;2023-05-23T07:36:36;1023.4;;;28.9;31.7
57374;BME280;43964;53.890;25.340;2023-05-23T07:41:30;1023.4;;;28.8;31.5
57374;BME280;43964;53.890;25.340;2023-05-23T07:47:16;1023.4;;;28.9;31.3
57374;BME280;43964;53.890;25.340;2023-05-23T07:51:30;1023.4;;;28.8;31.2
57374;BME280;43964;53.890;25.340;2023-05-23T07:57:18;1023.3;;;28.8;30.9
57374;BME280;43964;53.890;25.340;2023-05-23T08:02:18;1023.3;;;28.7;30.7
57374;BME280;43964;53.890;25.340;2023-05-23T08:07:06;1023.3;;;28.7;30.4
57374;BME280;43964;53.890;25.340;2023-05-23T08:11:32;1023.3;;;28.7;30.3
57374;BME280;43964;53.890;25.340;2023-05-23T08:17:00;1023.3;;;28.7;30.2
57374;BME280;43964;53.890;25.340;2023-05-23T08:22:18;1023.3;;;28.8;30
57374;BME280;43964;53.890;25.340;2023-05-23T08:26:54;1023.2;;;28.9;29.9
57374;BME280;43964;53.890;25.340;2023-05-23T08:32:02;1023.2;;;29;29.4
57374;BME280;43964;53.890;25.340;2023-05-23T08:36:58;1023.2;;;28.9;28.7
57374;BME280;43964;53.890;25.340;2023-05-23T08:41:44;1023.1;;;28.8;29.2
57374;BME280;43964;53.890;25.340;2023-05-23T08:47:06;1023.1;;;28.7;28.8
57374;BME280;43964;53.890;25.340;2023-05-23T08:51:54;1023.1;;;28.8;28.6
57374;BME280;43964;53.890;25.340;2023-05-23T08:57:06;1023.1;;;28.9;28.4
57374;BME280;43964;53.890;25.340;2023-05-23T09:02:02;1023;;;28.9;28.2
57374;BME280;43964;53.890;25.340;2023-05-23T09:07:10;1023;;;28.5;27.7
57374;BME280;43964;53.890;25.340;2023-05-23T09:12:18;1023;;;28;27.4
57374;BME280;43964;53.890;25.340;2023-05-23T09:16:59;1023;;;27.7;27.4
57374;BME280;43964;53.890;25.340;2023-05-23T09:22:06;1023;;;27.5;27.5
57374;BME280;43964;53.890;25.340;2023-05-23T09:27:06;1023;;;27.5;27.5
57374;BME280;43964;53.890;25.340;2023-05-23T09:32:04;1023;;;27.7;27.4
57374;BME280;43964;53.890;25.340;2023-05-23T09:37:18;1023;;;27.9;27.2
57374;BME280;43964;53.890;25.340;2023-05-23T09:42:02;1023;;;28.2;27.1
57374;BME280;43964;53.890;25.340;2023-05-23T09:47:18;1022.9;;;28.4;27.1
57374;BME280;43964;53.890;25.340;2023-05-23T09:52:06;1022.9;;;28.5;27
57374;BME280;43964;53.890;25.340;2023-05-23T09:56:54;1022.9;;;28.5;26.7
57374;BME280;43964;53.890;25.340;2023-05-23T10:01:58;1022.9;;;28.7;26
57374;BME280;43964;53.890;25.340;2023-05-23T10:12:35;1022.9;;;28.9;25.5
57374;BME280;43964;53.890;25.340;2023-05-23T10:17:19;1022.9;;;28.6;25.3
57374;BME280;43964;53.890;25.340;2023-05-23T10:22:11;1023;;;28.4;25.1
57374;BME280;43964;53.890;25.340;2023-05-23T10:27:18;1023;;;28.3;25.1
57374;BME280;43964;53.890;25.340;2023-05-23T10:32:20;1023;;;28.1;25.4
57374;BME280;43964;53.890;25.340;2023-05-23T10:36:47;1023;;;27.9;25.3
57374;BME280;43964;53.890;25.340;2023-05-23T10:41:54;1023;;;27.8;25.3
57374;BME280;43964;53.890;25.340;2023-05-23T10:47:04;1022.9;;;28;25.2
57374;BME280;43964;53.890;25.340;2023-05-23T10:52:22;1022.9;;;28.2;25
57374;BME280;43964;53.890;25.340;2023-05-23T10:56:32;1022.9;;;28.4;24.7
57374;BME280;43964;53.890;25.340;2023-05-23T11:02:02;1022.9;;;28.8;24.1
57374;BME280;43964;53.890;25.340;2023-05-23T11:06:39;1022.9;;;29;23.8
57374;BME280;43964;53.890;25.340;2023-05-23T11:11:52;1022.9;;;29.1;23.8
57374;BME280;43964;53.890;25.340;2023-05-23T11:16:50;1022.8;;;29.1;23.8
57374;BME280;43964;53.890;25.340;2023-05-23T11:21:42;1022.8;;;28.9;23.8
57374;BME280;43964;53.890;25.340;2023-05-23T11:27:10;1022.8;;;28.7;23.6
57374;BME280;43964;53.890;25.340;2023-05-23T11:31:40;1022.7;;;28.7;23.6
57374;BME280;43964;53.890;25.340;2023-05-23T11:37:10;1022.7;;;28.7;23.6
57374;BME280;43964;53.890;25.340;2023-05-23T11:41:58;1022.6;;;28.6;23.5
57374;BME280;43964;53.890;25.340;2023-05-23T11:46:57;1022.6;;;28.7;23.5
57374;BME280;43964;53.890;25.340;2023-05-23T11:52:20;1022.6;;;28.2;23.4
57374;BME280;43964;53.890;25.340;2023-05-23T11:57:20;1022.5;;;27.8;23.6
57374;BME280;43964;53.890;25.340;2023-05-23T12:02:04;1022.5;;;27.8;24
57374;BME280;43964;53.890;25.340;2023-05-23T12:07:20;1022.5;;;28.2;24.1
57374;BME280;43964;53.890;25.340;2023-05-23T12:12:10;1022.5;;;28.7;23.6
57374;BME280;43964;53.890;25.340;2023-05-23T12:16:44;1022.5;;;28.8;23.4
57374;BME280;43964;53.890;25.340;2023-05-23T12:21:44;1022.4;;;29.1;23.3
57374;BME280;43964;53.890;25.340;2023-05-23T12:26:57;1022.4;;;29.1;22.7
57374;BME280;43964;53.890;25.340;2023-05-23T12:32:06;1022.4;;;29.2;22.5
57374;BME280;43964;53.890;25.340;2023-05-23T12:36:32;1022.3;;;29.4;22.3
57374;BME280;43964;53.890;25.340;2023-05-23T12:42:10;1022.2;;;29.6;21.5
57374;BME280;43964;53.890;25.340;2023-05-23T12:47:18;1022.2;;;29.3;21.5
57374;BME280;43964;53.890;25.340;2023-05-23T12:51:42;1022.2;;;28.9;21.7
57374;BME280;43964;53.890;25.340;2023-05-23T12:57:06;1022.3;;;28.5;21.8
57374;BME280;43964;53.890;25.340;2023-05-23T13:02:00;1022.2;;;28.3;22
57374;BME280;43964;53.890;25.340;2023-05-23T13:06:38;1022.2;;;28.2;22
57374;BME280;43964;53.890;25.340;2023-05-23T13:12:14;1022.2;;;28.1;22
57374;BME280;43964;53.890;25.340;2023-05-23T13:17:02;1022.2;;;28.1;21.5
57374;BME280;43964;53.890;25.340;2023-05-23T13:22:18;1022.1;;;28.1;21.2
57374;BME280;43964;53.890;25.340;2023-05-23T13:26:44;1022.1;;;28.2;21.3
57374;BME280;43964;53.890;25.340;2023-05-23T13:31:44;1022;;;28.4;21.4
57374;BME280;43964;53.890;25.340;2023-05-23T13:36:58;1022.1;;;28.3;21.6
57374;BME280;43964;53.890;25.340;2023-05-23T13:41:50;1022.1;;;28.1;21.7
57374;BME280;43964;53.890;25.340;2023-05-23T13:46:50;1022.1;;;28.2;21.8
57374;BME280;43964;53.890;25.340;2023-05-23T13:52:18;1022.1;;;28.5;21.7
57374;BME280;43964;53.890;25.340;2023-05-23T13:56:44;1022;;;28.8;21.7
57374;BME280;43964;53.890;25.340;2023-05-23T14:02:18;1021.9;;;28.9;21.9
57374;BME280;43964;53.890;25.340;2023-05-23T14:07:10;1022;;;28.8;22
57374;BME280;43964;53.890;25.340;2023-05-23T14:11:58;1021.9;;;28.5;22.1
57374;BME280;43964;53.890;25.340;2023-05-23T14:16:32;1021.9;;;28.2;22.2
57374;BME280;43964;53.890;25.340;2023-05-23T14:22:18;1021.9;;;28;22.1
57374;BME280;43964;53.890;25.340;2023-05-23T14:27:18;1021.8;;;28;22.3
57374;BME280;43964;53.890;25.340;2023-05-23T14:31:44;1021.8;;;28.1;22.3
57374;BME280;43964;53.890;25.340;2023-05-23T14:37:20;1021.9;;;28;22.3
57374;BME280;43964;53.890;25.340;2023-05-23T14:42:20;1021.9;;;27.9;22.4
57374;BME280;43964;53.890;25.340;2023-05-23T14:46:32;1021.9;;;27.9;22.4
57374;BME280;43964;53.890;25.340;2023-05-23T14:51:50;1021.9;;;27.8;22.4
57374;BME280;43964;53.890;25.340;2023-05-23T14:56:56;1021.9;;;27.8;22.5
57374;BME280;43964;53.890;25.340;2023-05-23T15:02:06;1021.9;;;27.8;22.5
57374;BME280;43964;53.890;25.340;2023-05-23T15:06:32;1021.8;;;27.4;22.4
57374;BME280;43964;53.890;25.340;2023-05-23T15:12:12;1021.8;;;27.2;22.4
57374;BME280;43964;53.890;25.340;2023-05-23T15:17:12;1021.8;;;26.8;22.6
57374;BME280;43964;53.890;25.340;2023-05-23T15:21:32;1021.7;;;26.6;22.7
57374;BME280;43964;53.890;25.340;2023-05-23T15:27:08;1021.7;;;26.5;23.2
57374;BME280;43964;53.890;25.340;2023-05-23T15:31:44;1021.7;;;26.3;23.4
57374;BME280;43964;53.890;25.340;2023-05-23T15:36:32;1021.7;;;26.4;23.5
57374;BME280;43964;53.890;25.340;2023-05-23T15:42:18;1021.7;;;26.4;23.5
57374;BME280;43964;53.890;25.340;2023-05-23T15:47:04;1021.6;;;26.4;23.7
57374;BME280;43964;53.890;25.340;2023-05-23T15:52:12;1021.6;;;26.3;23.8
57374;BME280;43964;53.890;25.340;2023-05-23T15:57:06;1021.7;;;26.3;23.9
57374;BME280;43964;53.890;25.340;2023-05-23T16:02:00;1021.6;;;26.4;24
57374;BME280;43964;53.890;25.340;2023-05-23T16:06:44;1021.6;;;26.5;23.8
57374;BME280;43964;53.890;25.340;2023-05-23T16:11:46;1021.5;;;26.5;23.8
57374;BME280;43964;53.890;25.340;2023-05-23T16:16:50;1021.5;;;26.4;23.7
57374;BME280;43964;53.890;25.340;2023-05-23T16:22:20;1021.5;;;26.2;23.8
57374;BME280;43964;53.890;25.340;2023-05-23T16:26:42;1021.5;;;26.1;23.9
57374;BME280;43964;53.890;25.340;2023-05-23T16:32:22;1021.4;;;26;24.1
57374;BME280;43964;53.890;25.340;2023-05-23T16:37:22;1021.4;;;25.8;24.5
57374;BME280;43964;53.890;25.340;2023-05-23T16:41:46;1021.4;;;25.6;25.1
57374;BME280;43964;53.890;25.340;2023-05-23T16:47:08;1021.5;;;25.3;25.6
57374;BME280;43964;53.890;25.340;2023-05-23T16:51:54;1021.5;;;25.1;26.1
57374;BME280;43964;53.890;25.340;2023-05-23T16:57:20;1021.6;;;24.9;26.6
57374;BME280;43964;53.890;25.340;2023-05-23T17:01:40;1021.6;;;24.6;27.4
57374;BME280;43964;53.890;25.340;2023-05-23T17:07:00;1021.6;;;24.4;28.1
57374;BME280;43964;53.890;25.340;2023-05-23T17:11:30;1021.6;;;24.1;28.7
57374;BME280;43964;53.890;25.340;2023-05-23T17:16:40;1021.6;;;24;29.1
57374;BME280;43964;53.890;25.340;2023-05-23T17:21:30;1021.6;;;23.9;29.3
57374;BME280;43964;53.890;25.340;2023-05-23T17:26:44;1021.6;;;23.8;29.7
57374;BME280;43964;53.890;25.340;2023-05-23T17:32:06;1021.5;;;23.7;30
57374;BME280;43964;53.890;25.340;2023-05-23T17:37:04;1021.6;;;23.6;30.3
57374;BME280;43964;53.890;25.340;2023-05-23T17:41:34;1021.5;;;23.2;31.3
57374;BME280;43964;53.890;25.340;2023-05-23T17:47:20;1021.5;;;22.9;32
57374;BME280;43964;53.890;25.340;2023-05-23T17:51:44;1021.5;;;22.5;32.7
57374;BME280;43964;53.890;25.340;2023-05-23T17:57:06;1021.5;;;22.2;33.3
57374;BME280;43964;53.890;25.340;2023-05-23T18:02:00;1021.6;;;22;33.6
57374;BME280;43964;53.890;25.340;2023-05-23T18:06:32;1021.6;;;21.8;34.1
57374;BME280;43964;53.890;25.340;2023-05-23T18:12:22;1021.6;;;21.6;34.6
57374;BME280;43964;53.890;25.340;2023-05-23T18:17:06;1021.7;;;21.3;35.1
57374;BME280;43964;53.890;25.340;2023-05-23T18:22:12;1021.7;;;21.1;35.5
57374;BME280;43964;53.890;25.340;2023-05-23T18:27:08;1021.8;;;20.9;35.8
57374;BME280;43964;53.890;25.340;2023-05-23T18:31:52;1021.8;;;20.7;36
57374;BME280;43964;53.890;25.340;2023-05-23T18:36:56;1021.9;;;20.6;36.6
57374;BME280;43964;53.890;25.340;2023-05-23T18:41:32;1021.9;;;20.4;37.5
57374;BME280;43964;53.890;25.340;2023-05-23T18:46:38;1021.9;;;20.3;38.1
57374;BME280;43964;53.890;25.340;2023-05-23T18:52:10;1021.9;;;20;38.6
57374;BME280;43964;53.890;25.340;2023-05-23T18:56:32;1021.9;;;19.9;39
57374;BME280;43964;53.890;25.340;2023-05-23T19:02:04;1021.9;;;19.7;39.3
57374;BME280;43964;53.890;25.340;2023-05-23T19:07:18;1022;;;19.5;39.4
57374;BME280;43964;53.890;25.340;2023-05-23T19:11:56;1022.1;;;19.4;39.4
57374;BME280;43964;53.890;25.340;2023-05-23T19:16:48;1022.1;;;19.3;39.6
57374;BME280;43964;53.890;25.340;2023-05-23T19:21:38;1022.1;;;19.2;39.8
57374;BME280;43964;53.890;25.340;2023-05-23T19:27:17;1022.1;;;19;40.2
57374;BME280;43964;53.890;25.340;2023-05-23T19:31:32;1022.1;;;18.8;40.5
57374;BME280;43964;53.890;25.340;2023-05-23T19:37:04;1022.1;;;18.7;41.1
57374;BME280;43964;53.890;25.340;2023-05-23T19:41:32;1022.2;;;18.6;41.8
57374;BME280;43964;53.890;25.340;2023-05-23T19:46:44;1022.2;;;18.6;42
57374;BME280;43964;53.890;25.340;2023-05-23T19:51:44;1022.2;;;18.6;42.1
57374;BME280;43964;53.890;25.340;2023-05-23T19:56:32;1022.2;;;18.6;42.1
57374;BME280;43964;53.890;25.340;2023-05-23T20:02:06;1022.2;;;18.7;42
57374;BME280;43964;53.890;25.340;2023-05-23T20:07:04;1022.2;;;18.7;41.9
57374;BME280;43964;53.890;25.340;2023-05-23T20:12:12;1022.2;;;18.7;42
57374;BME280;43964;53.890;25.340;2023-05-23T20:17:20;1022.2;;;18.7;42
57374;BME280;43964;53.890;25.340;2023-05-23T20:22:20;1022.2;;;18.7;42.1
57374;BME280;43964;53.890;25.340;2023-05-23T20:27:06;1022.3;;;18.7;42.2
57374;BME280;43964;53.890;25.340;2023-05-23T20:32:06;1022.2;;;18.7;42.6
57374;BME280;43964;53.890;25.340;2023-05-23T20:36:44;1022.3;;;18.8;42.8
57374;BME280;43964;53.890;25.340;2023-05-23T20:42:18;1022.3;;;18.8;43
57374;BME280;43964;53.890;25.340;2023-05-23T20:47:10;1022.4;;;18.8;43.3
57374;BME280;43964;53.890;25.340;2023-05-23T20:51:33;1022.5;;;18.8;43.8
57374;BME280;43964;53.890;25.340;2023-05-23T20:57:18;1022.6;;;18.8;43.9
57374;BME280;43964;53.890;25.340;2023-05-23T21:01:56;1022.6;;;18.8;44
57374;BME280;43964;53.890;25.340;2023-05-23T21:07:20;1022.6;;;18.8;44.1
57374;BME280;43964;53.890;25.340;2023-05-23T21:11:50;1022.6;;;18.8;44.2
57374;BME280;43964;53.890;25.340;2023-05-23T21:17:12;1022.6;;;18.7;44.3
57374;BME280;43964;53.890;25.340;2023-05-23T21:22:20;1022.6;;;18.6;44.4
57374;BME280;43964;53.890;25.340;2023-05-23T21:26:32;1022.6;;;18.6;44.7
57374;BME280;43964;53.890;25.340;2023-05-23T21:32:06;1022.6;;;18.6;45
57374;BME280;43964;53.890;25.340;2023-05-23T21:36:56;1022.7;;;18.6;45.4
57374;BME280;43964;53.890;25.340;2023-05-23T21:41:32;1022.7;;;18.6;45.6
57374;BME280;43964;53.890;25.340;2023-05-23T21:47:22;1022.7;;;18.5;45.8
57374;BME280;43964;53.890;25.340;2023-05-23T21:52:06;1022.7;;;18.5;46
57374;BME280;43964;53.890;25.340;2023-05-23T21:57:00;1022.7;;;18.4;45.9
57374;BME280;43964;53.890;25.340;2023-05-23T22:01:56;1022.7;;;18.3;45.9
57374;BME280;43964;53.890;25.340;2023-05-23T22:06:32;1022.7;;;18.2;45.8
57374;BME280;43964;53.890;25.340;2023-05-23T22:12:06;1022.7;;;18.2;45.6
57374;BME280;43964;53.890;25.340;2023-05-23T22:16:44;1022.7;;;18.3;45.4
57374;BME280;43964;53.890;25.340;2023-05-23T22:22:20;1022.7;;;18.3;45.3
57374;BME280;43964;53.890;25.340;2023-05-23T22:27:20;1022.7;;;18.4;45.4
57374;BME280;43964;53.890;25.340;2023-05-23T22:32:00;1022.7;;;18.4;45.8
57374;BME280;43964;53.890;25.340;2023-05-23T22:37:20;1022.7;;;18.4;46.2
57374;BME280;43964;53.890;25.340;2023-05-23T22:42:12;1022.7;;;18.3;46.6
57374;BME280;43964;53.890;25.340;2023-05-23T22:46:58;1022.7;;;18.3;46.8
57374;BME280;43964;53.890;25.340;2023-05-23T22:51:32;1022.7;;;18.3;46.8
57374;BME280;43964;53.890;25.340;2023-05-23T22:57:20;1022.7;;;18.3;46.8
57374;BME280;43964;53.890;25.340;2023-05-23T23:02:18;1022.7;;;18.2;46.9
57374;BME280;43964;53.890;25.340;2023-05-23T23:06:54;1022.7;;;18.2;46.9
57374;BME280;43964;53.890;25.340;2023-05-23T23:12:18;1022.7;;;18.2;47.1
57374;BME280;43964;53.890;25.340;2023-05-23T23:17:10;1022.7;;;18.2;47.2
57374;BME280;43964;53.890;25.340;2023-05-23T23:21:42;1022.6;;;18.2;47.5
57374;BME280;43964;53.890;25.340;2023-05-23T23:26:46;1022.7;;;18.1;47.8
57374;BME280;43964;53.890;25.340;2023-05-23T23:31:44;1022.7;;;18.1;48
57374;BME280;43964;53.890;25.340;2023-05-23T23:36:56;1022.6;;;18;48.3
57374;BME280;43964;53.890;25.340;2023-05-23T23:41:40;1022.6;;;17.9;48.5
57374;BME280;43964;53.890;25.340;2023-05-23T23:47:06;1022.6;;;17.7;48.1
57374;BME280;43964;53.890;25.340;2023-05-23T23:52:14;1022.7;;;17.7;47.6
57374;BME280;43964;53.890;25.340;2023-05-23T23:56:40;1022.7;;;17.8;47.2
